createdAt,value
2023-01-21T00:01:10.783Z,61.53
2023-01-21T00:03:39.082Z,67.18
2023-01-21T00:06:07.854Z,56.35
2023-01-21T00:08:35.746Z,67.30
2023-01-21T00:11:09.720Z,64.28
2023-01-21T00:13:38.374Z,55.28
2023-01-21T00:16:07.141Z,63.13
2023-01-21T00:18:36.832Z,53.80
2023-01-21T00:21:04.995Z,71.45
2023-01-21T00:23:33.088Z,56.22
2023-01-21T00:26:01.263Z,71.63
2023-01-21T00:28:31.705Z,57.72
2023-01-21T00:31:00.724Z,65.15
2023-01-21T00:33:29.762Z,68.32
2023-01-21T00:36:02.531Z,60.20
2023-01-21T00:38:30.948Z,63.17
2023-01-21T00:41:02.946Z,62.20
2023-01-21T00:43:32.744Z,60.75
2023-01-21T00:46:00.885Z,54.08
2023-01-21T00:48:29.326Z,50.75
2023-01-21T00:51:00.649Z,57.20
2023-01-21T00:53:29.579Z,55.28
2023-01-21T00:56:00.574Z,55.33
2023-01-21T00:58:28.690Z,55.70
2023-01-21T01:01:03.627Z,52.92
2023-01-21T01:03:32.253Z,64.03
2023-01-21T01:06:07.864Z,47.42
2023-01-21T01:08:36.023Z,48.95
2023-01-21T01:11:04.347Z,50.55
2023-01-21T01:13:34.307Z,57.35
2023-01-21T01:16:03.805Z,53.30
2023-01-21T01:18:33.633Z,54.35
2023-01-21T01:21:01.876Z,51.63
2023-01-21T01:23:30.085Z,49.17
2023-01-21T01:25:59.385Z,48.47
2023-01-21T01:28:27.583Z,59.75
2023-01-21T01:30:56.626Z,46.97
2023-01-21T01:33:26.261Z,54.75
2023-01-21T01:35:54.404Z,47.38
2023-01-21T01:38:23.565Z,44.08
2023-01-21T01:40:53.614Z,43.80
2023-01-21T01:43:23.864Z,45.75
2023-01-21T01:45:52.451Z,50.95
2023-01-21T01:48:23.550Z,45.63
2023-01-21T01:50:53.368Z,54.58
2023-01-21T01:53:21.471Z,40.38
2023-01-21T01:55:50.624Z,40.17
2023-01-21T01:58:21.870Z,42.70
2023-01-21T02:00:50.189Z,54.90
2023-01-21T02:03:36.415Z,51.70
2023-01-21T02:06:06.008Z,44.35
2023-01-21T02:08:36.155Z,34.80
2023-01-21T02:11:07.784Z,34.28
2023-01-21T02:13:35.725Z,34.03
2023-01-21T02:16:21.797Z,34.70
2023-01-21T02:19:00.692Z,34.65
2023-01-21T02:21:55.176Z,40.75
2023-01-21T02:24:56.384Z,39.78
2023-01-21T02:27:33.284Z,36.00
2023-01-21T02:30:37.330Z,33.05
2023-01-21T02:33:43.810Z,38.80
2023-01-21T02:36:30.345Z,32.40
2023-01-21T02:39:04.544Z,35.15
2023-01-21T02:41:42.333Z,44.05
2023-01-21T02:44:15.863Z,36.22
2023-01-21T02:46:47.960Z,36.50
2023-01-21T02:49:22.355Z,35.40
2023-01-21T02:51:51.702Z,34.30
2023-01-21T02:54:49.039Z,33.90
2023-01-21T02:57:20.905Z,28.27
2023-01-21T02:59:52.139Z,31.90
2023-01-21T03:02:33.778Z,31.48
2023-01-21T03:05:11.767Z,28.60
2023-01-21T03:07:47.979Z,29.33
2023-01-21T03:10:21.536Z,31.02
2023-01-21T03:12:56.879Z,30.25
2023-01-21T03:15:45.693Z,32.28
2023-01-21T03:18:19.502Z,27.10
2023-01-21T03:20:51.588Z,31.08
2023-01-21T03:23:24.977Z,29.00
2023-01-21T03:25:52.852Z,28.30
2023-01-21T03:28:25.013Z,33.85
2023-01-21T03:30:56.946Z,31.52
2023-01-21T03:33:26.902Z,33.80
2023-01-21T03:35:58.723Z,33.47
2023-01-21T03:38:31.499Z,28.25
2023-01-21T03:41:06.482Z,34.10
2023-01-21T03:43:34.860Z,30.02
2023-01-21T03:46:08.384Z,25.75
2023-01-21T03:48:43.548Z,26.90
2023-01-21T03:51:16.247Z,29.35
2023-01-21T03:53:46.417Z,29.08
2023-01-21T03:56:14.490Z,31.08
2023-01-21T03:58:42.486Z,28.02
2023-01-21T04:01:10.437Z,28.40
2023-01-21T04:03:38.479Z,32.63
2023-01-21T04:06:06.480Z,29.10
2023-01-21T04:08:34.406Z,27.48
2023-01-21T04:11:03.690Z,32.17
2023-01-21T04:13:31.555Z,33.15
2023-01-21T04:15:59.454Z,30.85
2023-01-21T04:18:27.359Z,36.28
2023-01-21T04:20:55.243Z,30.00
2023-01-21T04:23:23.137Z,28.40
2023-01-21T04:25:51.545Z,27.42
2023-01-21T04:28:21.408Z,26.85
2023-01-21T04:30:49.934Z,30.20
2023-01-21T04:33:17.827Z,26.67
2023-01-21T04:35:45.750Z,33.47
2023-01-21T04:38:13.834Z,28.63
2023-01-21T04:40:41.838Z,29.23
2023-01-21T04:43:09.820Z,27.08
2023-01-21T04:45:39.121Z,34.40
2023-01-21T04:48:07.711Z,30.92
2023-01-21T04:50:35.719Z,29.10
2023-01-21T04:53:03.670Z,27.92
2023-01-21T04:55:31.618Z,28.65
2023-01-21T04:57:59.518Z,26.98
2023-01-21T05:00:27.507Z,28.63
2023-01-21T05:02:56.796Z,32.78
2023-01-21T05:05:30.933Z,32.15
2023-01-21T05:07:58.794Z,30.30
2023-01-21T05:10:26.681Z,30.55
2023-01-21T05:12:54.579Z,27.58
2023-01-21T05:15:22.534Z,29.80
2023-01-21T05:17:50.448Z,29.83
2023-01-21T05:20:20.071Z,31.13
2023-01-21T05:22:48.859Z,33.53
2023-01-21T05:25:17.658Z,27.52
2023-01-21T05:27:51.279Z,28.10
2023-01-21T05:30:19.289Z,26.85
2023-01-21T05:32:51.388Z,27.60
2023-01-21T05:35:21.400Z,27.15
2023-01-21T05:37:49.365Z,25.95
2023-01-21T05:40:18.554Z,27.85
2023-01-21T05:42:47.259Z,30.05
2023-01-21T05:45:15.682Z,35.95
2023-01-21T05:47:43.786Z,28.48
2023-01-21T05:50:13.040Z,29.60
2023-01-21T05:52:42.326Z,27.33
2023-01-21T05:55:10.515Z,32.20
2023-01-21T05:57:38.553Z,29.40
2023-01-21T06:00:07.711Z,30.65
2023-01-21T06:02:35.678Z,32.55
2023-01-21T06:05:03.743Z,25.52
2023-01-21T06:07:31.691Z,27.50
2023-01-21T06:10:00.940Z,27.83
2023-01-21T06:12:28.919Z,31.42
2023-01-21T06:14:57.557Z,32.35
2023-01-21T06:17:26.284Z,30.95
2023-01-21T06:19:54.613Z,30.70
2023-01-21T06:22:22.534Z,31.23
2023-01-21T06:24:50.469Z,33.60
2023-01-21T06:27:19.654Z,31.83
2023-01-21T06:29:47.519Z,28.73
2023-01-21T06:32:15.368Z,26.52
2023-01-21T06:34:45.208Z,31.40
2023-01-21T06:37:14.433Z,29.23
2023-01-21T06:39:42.404Z,37.58
2023-01-21T06:42:10.285Z,31.98
2023-01-21T06:44:39.506Z,29.42
2023-01-21T06:47:07.540Z,32.92
2023-01-21T06:49:35.450Z,38.72
2023-01-21T06:52:03.468Z,33.28
2023-01-21T06:54:31.408Z,35.40
2023-01-21T06:56:59.519Z,29.40
2023-01-21T06:59:27.385Z,36.00
2023-01-21T07:01:58.974Z,38.97
2023-01-21T07:04:27.063Z,41.67
2023-01-21T07:06:55.343Z,37.38
2023-01-21T07:09:23.415Z,38.30
2023-01-21T07:11:51.320Z,37.67
2023-01-21T07:14:19.209Z,38.75
2023-01-21T07:16:47.083Z,70.53
2023-01-21T07:19:16.467Z,68.43
2023-01-21T07:21:44.424Z,87.22
2023-01-21T07:24:12.286Z,69.63
2023-01-21T07:26:41.477Z,79.88
2023-01-21T07:29:09.582Z,60.35
2023-01-21T07:31:37.638Z,54.13
2023-01-21T07:34:05.712Z,42.33
2023-01-21T07:36:35.147Z,46.35
2023-01-21T07:39:03.413Z,39.00
2023-01-21T07:41:31.499Z,45.42
2023-01-21T07:43:59.340Z,64.05
2023-01-21T07:46:27.897Z,62.33
2023-01-21T07:48:55.807Z,59.13
2023-01-21T07:51:23.968Z,40.72
2023-01-21T07:53:55.679Z,55.42
2023-01-21T07:56:25.173Z,49.47
2023-01-21T07:58:53.108Z,54.28
2023-01-21T08:01:22.266Z,52.05
2023-01-21T08:03:51.173Z,47.08
2023-01-21T08:06:19.133Z,45.22
2023-01-21T08:08:46.977Z,58.20
2023-01-21T08:11:16.302Z,39.95
2023-01-21T08:13:44.598Z,32.97
2023-01-21T08:16:13.614Z,36.53
2023-01-21T08:18:41.551Z,29.17
2023-01-21T08:21:09.452Z,28.90
2023-01-21T08:23:37.412Z,29.05
2023-01-21T08:26:06.582Z,35.45
2023-01-21T08:28:36.133Z,41.17
2023-01-21T08:31:05.779Z,35.80
2023-01-21T08:33:33.851Z,30.52
2023-01-21T08:36:02.370Z,29.98
2023-01-21T08:38:30.291Z,28.48
2023-01-21T08:40:58.986Z,29.63
2023-01-21T08:43:27.201Z,28.63
2023-01-21T08:45:58.636Z,33.92
2023-01-21T08:48:26.618Z,28.67
2023-01-21T08:50:54.593Z,28.17
2023-01-21T08:53:22.978Z,31.13
2023-01-21T08:55:50.846Z,23.40
2023-01-21T08:58:18.750Z,26.63
2023-01-21T09:00:52.750Z,24.92
2023-01-21T09:03:21.980Z,23.45
2023-01-21T09:05:51.627Z,23.08
2023-01-21T09:08:19.904Z,32.30
2023-01-21T09:11:02.850Z,26.98
2023-01-21T09:13:31.839Z,26.27
2023-01-21T09:15:59.867Z,22.02
2023-01-21T09:18:29.093Z,27.08
2023-01-21T09:21:01.607Z,22.30
2023-01-21T09:23:32.176Z,25.95
2023-01-21T09:26:03.907Z,25.80
2023-01-21T09:28:33.146Z,29.90
2023-01-21T09:31:03.050Z,27.38
2023-01-21T09:33:33.289Z,26.90
2023-01-21T09:36:03.395Z,32.70
2023-01-21T09:38:31.650Z,29.30
2023-01-21T09:41:04.495Z,31.08
2023-01-21T09:43:36.371Z,23.95
2023-01-21T09:46:08.879Z,26.70
2023-01-21T09:48:43.137Z,31.70
2023-01-21T09:51:18.821Z,32.25
2023-01-21T09:53:50.650Z,29.27
2023-01-21T09:56:25.015Z,32.17
2023-01-21T09:59:02.009Z,35.35
2023-01-21T10:01:33.316Z,33.08
2023-01-21T10:04:11.418Z,33.20
2023-01-21T10:06:46.446Z,38.67
2023-01-21T10:09:34.792Z,41.47
2023-01-21T10:12:19.479Z,31.70
2023-01-21T10:15:08.252Z,33.78
2023-01-21T10:17:50.516Z,32.33
2023-01-21T10:20:25.550Z,36.92
2023-01-21T10:22:58.291Z,33.53
2023-01-21T10:25:30.717Z,36.03
2023-01-21T10:28:02.267Z,34.53
2023-01-21T10:30:35.877Z,36.78
2023-01-21T10:33:04.240Z,46.70
2023-01-21T10:35:45.707Z,63.28
2023-01-21T10:38:23.847Z,51.22
2023-01-21T10:40:59.821Z,46.10
2023-01-21T10:43:41.638Z,194.20
2023-01-21T10:46:18.160Z,144.25
2023-01-21T10:48:53.335Z,53.78
2023-01-21T10:51:30.516Z,53.53
2023-01-21T10:54:05.058Z,40.00
2023-01-21T10:56:43.212Z,34.38
2023-01-21T10:59:13.959Z,38.05
2023-01-21T11:01:45.958Z,34.05
2023-01-21T11:04:16.871Z,28.60
2023-01-21T11:06:58.580Z,34.92
2023-01-21T11:09:29.549Z,39.35
2023-01-21T11:11:57.888Z,37.20
2023-01-21T11:14:26.678Z,31.60
2023-01-21T11:16:55.549Z,36.00
2023-01-21T11:19:26.253Z,42.05
2023-01-21T11:22:04.209Z,50.95
2023-01-21T11:24:33.707Z,40.70
2023-01-21T11:27:02.789Z,35.28
2023-01-21T11:29:41.681Z,33.65
2023-01-21T11:32:18.812Z,32.10
2023-01-21T11:34:48.401Z,34.35
2023-01-21T11:37:26.002Z,32.28
2023-01-21T11:39:57.327Z,30.63
2023-01-21T11:42:25.781Z,77.53
2023-01-21T11:44:56.048Z,95.43
2023-01-21T11:47:36.836Z,294.48
2023-01-21T11:50:13.896Z,79.57
2023-01-21T11:52:43.448Z,98.70
2023-01-21T11:55:20.197Z,94.80
2023-01-21T11:57:52.330Z,145.02
2023-01-21T12:00:22.155Z,37.83
2023-01-21T12:02:54.675Z,29.45
2023-01-21T12:05:32.919Z,37.63
2023-01-21T12:08:04.336Z,29.98
2023-01-21T12:10:36.806Z,26.45
2023-01-21T12:13:22.925Z,31.52
2023-01-21T12:16:26.266Z,24.05
2023-01-21T12:19:26.667Z,23.50
2023-01-21T12:22:17.225Z,22.88
2023-01-21T12:25:22.183Z,25.88
2023-01-21T12:28:06.078Z,29.33
2023-01-21T12:30:40.750Z,24.55
2023-01-21T12:33:16.581Z,34.10
2023-01-21T12:35:48.084Z,30.45
2023-01-21T12:38:19.876Z,29.17
2023-01-21T12:40:56.534Z,22.83
2023-01-21T12:43:30.553Z,19.83
2023-01-21T12:46:04.166Z,27.83
2023-01-21T12:48:36.254Z,20.90
2023-01-21T12:51:09.327Z,20.08
2023-01-21T12:53:41.537Z,27.13
2023-01-21T12:56:21.751Z,20.00
2023-01-21T12:58:55.808Z,25.17
2023-01-21T13:01:45.639Z,19.27
2023-01-21T13:04:25.078Z,22.88
2023-01-21T13:07:00.202Z,17.08
2023-01-21T13:09:38.739Z,19.23
2023-01-21T13:12:15.161Z,18.13
2023-01-21T13:14:48.441Z,23.63
2023-01-21T13:17:20.570Z,17.90
2023-01-21T13:19:48.535Z,18.67
2023-01-21T13:22:30.021Z,14.27
2023-01-21T13:25:09.227Z,22.88
2023-01-21T13:27:45.401Z,22.85
2023-01-21T13:30:22.145Z,20.92
2023-01-21T13:32:57.857Z,18.95
2023-01-21T13:35:34.724Z,21.45
2023-01-21T13:38:10.226Z,21.70
2023-01-21T13:40:45.114Z,22.58
2023-01-21T13:43:30.267Z,22.50
2023-01-21T13:46:12.168Z,20.95
2023-01-21T13:49:02.076Z,17.45
2023-01-21T13:51:51.683Z,23.98
2023-01-21T13:54:31.088Z,26.55
2023-01-21T13:57:11.239Z,19.60
2023-01-21T13:59:45.836Z,28.40
2023-01-21T14:02:19.700Z,46.80
2023-01-21T14:04:52.899Z,21.50
2023-01-21T14:11:44.474Z,26.00
2023-01-21T14:14:32.917Z,29.85
2023-01-21T14:17:29.033Z,21.70
2023-01-21T14:20:16.350Z,28.10
2023-01-21T14:31:38.389Z,19.25
2023-01-21T14:34:16.031Z,19.27
2023-01-21T14:44:58.730Z,24.98
2023-01-21T14:47:49.375Z,21.42
2023-01-21T14:50:53.757Z,28.88
2023-01-21T14:53:24.829Z,15.30
2023-01-21T14:56:21.031Z,16.10
2023-01-21T15:14:07.464Z,17.92
2023-01-21T15:16:37.337Z,21.48
2023-01-21T15:19:30.404Z,24.02
2023-01-21T15:57:50.480Z,23.05
2023-01-21T16:00:38.314Z,63.50
2023-01-21T16:03:22.580Z,43.25
2023-01-21T16:06:07.065Z,31.17
2023-01-21T16:08:57.307Z,25.02
2023-01-21T16:15:41.947Z,15.35
2023-01-21T16:18:22.537Z,16.77
2023-01-21T16:20:54.274Z,18.63
2023-01-21T16:23:27.759Z,18.52
2023-01-21T16:25:56.008Z,35.95
2023-01-21T16:28:23.944Z,20.70
2023-01-21T16:30:59.040Z,18.40
2023-01-21T16:33:27.013Z,15.20
2023-01-21T16:35:57.321Z,13.10
2023-01-21T16:38:27.861Z,17.45
2023-01-21T16:41:20.325Z,21.77
2023-01-21T16:43:53.166Z,19.35
2023-01-21T16:46:25.573Z,76.10
2023-01-21T16:48:57.332Z,45.70
2023-01-21T16:51:28.653Z,30.67
2023-01-21T16:54:27.261Z,41.33
2023-01-21T16:56:58.156Z,20.65
2023-01-21T16:59:33.656Z,23.23
2023-01-21T17:02:03.420Z,18.55
2023-01-21T17:04:31.522Z,17.60
2023-01-21T17:07:00.000Z,22.05
2023-01-21T17:09:31.992Z,16.85
2023-01-21T17:12:03.797Z,18.35
2023-01-21T17:14:32.527Z,16.33
2023-01-21T17:17:04.962Z,20.95
2023-01-21T17:19:36.445Z,18.80
2023-01-21T17:22:12.831Z,13.80
2023-01-21T17:24:44.103Z,17.58
2023-01-21T17:27:17.361Z,16.35
2023-01-21T17:29:45.609Z,16.77
2023-01-21T17:32:26.865Z,21.48
2023-01-21T17:35:11.302Z,18.23
2023-01-21T17:37:44.500Z,16.40
2023-01-21T17:40:28.608Z,19.67
2023-01-21T17:42:57.585Z,17.35
2023-01-21T17:45:30.766Z,16.30
2023-01-21T17:48:12.464Z,17.08
2023-01-21T17:50:47.183Z,22.15
2023-01-21T17:53:23.443Z,17.92
2023-01-21T17:56:02.396Z,62.35
2023-01-21T18:03:04.586Z,18.50
2023-01-21T18:05:32.639Z,16.80
2023-01-21T18:08:00.608Z,17.75
2023-01-21T18:10:30.509Z,18.77
2023-01-21T18:12:58.891Z,18.58
2023-01-21T18:15:27.557Z,18.27
2023-01-21T18:17:57.179Z,16.92
2023-01-21T18:20:28.115Z,17.15
2023-01-21T18:22:58.057Z,15.88
2023-01-21T18:25:27.870Z,22.42
2023-01-21T18:27:56.600Z,18.55
2023-01-21T18:30:26.696Z,16.05
2023-01-21T18:32:55.651Z,16.35
2023-01-21T18:35:28.303Z,16.67
2023-01-21T18:37:56.444Z,17.60
2023-01-21T18:40:25.012Z,15.30
2023-01-21T18:42:55.494Z,15.68
2023-01-21T18:45:27.656Z,17.33
2023-01-21T18:47:58.216Z,17.85
2023-01-21T18:50:28.981Z,16.25
2023-01-21T18:52:57.180Z,16.63
2023-01-21T18:55:28.613Z,19.75
2023-01-21T18:57:57.646Z,15.38
2023-01-21T19:00:28.439Z,18.02
2023-01-21T19:02:57.931Z,13.80
2023-01-21T19:05:38.262Z,15.90
2023-01-21T19:08:11.540Z,13.55
2023-01-21T19:10:39.448Z,18.92
2023-01-21T19:13:07.296Z,15.23
2023-01-21T19:15:35.279Z,19.80
2023-01-21T19:18:03.599Z,17.08
2023-01-21T19:20:32.886Z,16.45
2023-01-21T19:23:00.806Z,16.70
2023-01-21T19:25:28.738Z,19.23
2023-01-21T19:27:57.962Z,20.25
2023-01-21T19:30:28.450Z,18.92
2023-01-21T19:32:57.442Z,15.88
2023-01-21T19:35:29.805Z,17.63
2023-01-21T19:37:59.825Z,16.77
2023-01-21T19:40:29.489Z,18.58
2023-01-21T19:42:57.368Z,16.23
2023-01-21T19:45:28.900Z,17.23
2023-01-21T19:47:57.170Z,22.98
2023-01-21T19:50:28.138Z,17.92
2023-01-21T19:52:57.774Z,17.45
2023-01-21T19:55:26.726Z,19.63
2023-01-21T19:57:57.921Z,18.00
2023-01-21T20:00:28.073Z,17.90
2023-01-21T20:02:56.303Z,19.88
2023-01-21T20:05:26.195Z,18.95
2023-01-21T20:07:54.732Z,19.00
2023-01-21T20:10:25.592Z,19.30
2023-01-21T20:12:54.225Z,21.63
2023-01-21T20:15:24.672Z,20.73
2023-01-21T20:17:55.985Z,22.10
2023-01-21T20:20:26.272Z,20.40
2023-01-21T20:22:54.735Z,17.80
2023-01-21T20:25:25.975Z,20.30
2023-01-21T20:27:57.894Z,22.20
2023-01-21T20:30:28.443Z,19.00
2023-01-21T20:32:57.153Z,22.17
2023-01-21T20:35:27.095Z,18.90
2023-01-21T20:37:56.713Z,21.10
2023-01-21T20:40:28.023Z,17.42
2023-01-21T20:42:58.519Z,18.08
2023-01-21T20:45:31.201Z,17.88
2023-01-21T20:48:01.646Z,19.67
2023-01-21T20:50:33.568Z,22.13
2023-01-21T20:53:01.979Z,20.83
2023-01-21T20:55:31.990Z,21.13
2023-01-21T20:57:59.856Z,22.30
2023-01-21T21:00:31.639Z,22.92
2023-01-21T21:02:59.535Z,20.52
2023-01-21T21:05:28.875Z,20.25
2023-01-21T21:07:56.951Z,17.08
2023-01-21T21:10:29.574Z,21.35
2023-01-21T21:12:59.284Z,17.25
2023-01-21T21:15:28.841Z,18.33
2023-01-21T21:17:57.303Z,20.42
2023-01-21T21:20:27.254Z,21.00
2023-01-21T21:22:55.351Z,21.27
2023-01-21T21:25:25.418Z,23.02
2023-01-21T21:27:53.837Z,29.65
2023-01-21T21:30:26.319Z,21.50
2023-01-21T21:32:55.970Z,24.90
2023-01-21T21:35:26.084Z,26.58
2023-01-21T21:37:55.336Z,26.50
2023-01-21T21:40:25.014Z,24.60
2023-01-21T21:43:10.451Z,30.35
2023-01-21T21:45:59.936Z,27.50
2023-01-21T21:48:42.040Z,26.50
2023-01-21T21:51:11.755Z,34.95
2023-01-21T21:53:41.381Z,30.08
2023-01-21T21:56:11.216Z,25.23
2023-01-21T21:58:39.069Z,31.20
2023-01-21T22:01:15.473Z,26.17
2023-01-21T22:03:44.096Z,29.05
2023-01-21T22:06:13.157Z,29.30
2023-01-21T22:08:42.478Z,26.00
2023-01-21T22:11:14.429Z,24.80
2023-01-21T22:13:43.551Z,28.30
2023-01-21T22:16:15.035Z,29.75
2023-01-21T22:18:43.324Z,29.60
2023-01-21T22:21:14.973Z,27.35
2023-01-21T22:23:43.600Z,30.85
2023-01-21T22:26:14.044Z,28.85
2023-01-21T22:28:44.068Z,27.70
2023-01-21T22:31:15.859Z,34.83
2023-01-21T22:33:44.213Z,31.58
2023-01-21T22:36:14.483Z,31.65
2023-01-21T22:38:42.455Z,30.73
2023-01-21T22:41:11.346Z,33.55
2023-01-21T22:43:41.711Z,32.67
2023-01-21T22:46:14.225Z,33.30
2023-01-21T22:48:42.565Z,29.27
2023-01-21T22:51:12.730Z,33.65
2023-01-21T22:53:41.178Z,34.80
2023-01-21T22:56:09.375Z,34.70
2023-01-21T22:58:37.657Z,33.22
2023-01-21T23:01:06.261Z,27.98
2023-01-21T23:03:35.995Z,31.85
2023-01-21T23:06:05.448Z,28.27
2023-01-21T23:08:33.331Z,28.50
2023-01-21T23:11:02.470Z,28.05
2023-01-21T23:13:30.608Z,26.27
2023-01-21T23:15:58.757Z,28.17
2023-01-21T23:18:28.989Z,27.20
2023-01-21T23:20:58.234Z,29.58
2023-01-21T23:23:26.217Z,28.17
2023-01-21T23:25:54.522Z,28.02
2023-01-21T23:28:24.475Z,27.20
2023-01-21T23:30:52.516Z,29.52
2023-01-21T23:33:20.605Z,22.83
2023-01-21T23:35:55.479Z,30.23
2023-01-21T23:38:24.682Z,22.05
2023-01-21T23:40:52.558Z,26.27
2023-01-21T23:43:20.420Z,26.73
2023-01-21T23:45:48.369Z,25.30
2023-01-21T23:48:16.272Z,24.88
2023-01-21T23:50:44.246Z,22.95
2023-01-21T23:53:12.149Z,26.77
2023-01-21T23:55:41.397Z,23.80
2023-01-21T23:58:09.348Z,23.10
